sensor_id;sensor_type;location;lat;lon;timestamp;P1;durP1;ratioP1;P2;durP2;ratioP2
22429;SDS011;11382;48.086;11.632;2023-07-22T00:01:55;4.55;;;3.00;;
22429;SDS011;11382;48.086;11.632;2023-07-22T00:04:22;7.13;;;3.67;;
22429;SDS011;11382;48.086;11.632;2023-07-22T00:06:50;5.13;;;3.53;;
22429;SDS011;11382;48.086;11.632;2023-07-22T00:09:19;6.63;;;3.30;;
22429;SDS011;11382;48.086;11.632;2023-07-22T00:11:48;7.15;;;3.30;;
22429;SDS011;11382;48.086;11.632;2023-07-22T00:14:17;4.82;;;3.55;;
22429;SDS011;11382;48.086;11.632;2023-07-22T00:16:45;5.22;;;3.47;;
22429;SDS011;11382;48.086;11.632;2023-07-22T00:19:15;6.97;;;3.85;;
22429;SDS011;11382;48.086;11.632;2023-07-22T00:21:47;5.40;;;3.40;;
22429;SDS011;11382;48.086;11.632;2023-07-22T00:24:15;6.15;;;4.00;;
22429;SDS011;11382;48.086;11.632;2023-07-22T00:26:43;3.50;;;2.92;;
22429;SDS011;11382;48.086;11.632;2023-07-22T00:29:11;6.47;;;3.63;;
22429;SDS011;11382;48.086;11.632;2023-07-22T00:31:39;5.70;;;3.58;;
22429;SDS011;11382;48.086;11.632;2023-07-22T00:34:07;5.43;;;3.78;;
22429;SDS011;11382;48.086;11.632;2023-07-22T00:36:38;5.65;;;3.83;;
22429;SDS011;11382;48.086;11.632;2023-07-22T00:39:06;4.72;;;3.65;;
22429;SDS011;11382;48.086;11.632;2023-07-22T00:41:34;5.07;;;3.75;;
22429;SDS011;11382;48.086;11.632;2023-07-22T00:44:02;7.45;;;3.97;;
22429;SDS011;11382;48.086;11.632;2023-07-22T00:46:30;5.53;;;4.03;;
22429;SDS011;11382;48.086;11.632;2023-07-22T00:48:58;4.80;;;3.30;;
22429;SDS011;11382;48.086;11.632;2023-07-22T00:51:26;4.90;;;3.40;;
22429;SDS011;11382;48.086;11.632;2023-07-22T00:53:55;4.30;;;3.17;;
22429;SDS011;11382;48.086;11.632;2023-07-22T00:56:24;4.75;;;3.53;;
22429;SDS011;11382;48.086;11.632;2023-07-22T00:58:53;5.80;;;3.60;;
22429;SDS011;11382;48.086;11.632;2023-07-22T01:01:21;6.43;;;3.50;;
22429;SDS011;11382;48.086;11.632;2023-07-22T01:03:49;6.20;;;3.42;;
22429;SDS011;11382;48.086;11.632;2023-07-22T01:06:17;8.15;;;4.05;;
22429;SDS011;11382;48.086;11.632;2023-07-22T01:08:46;6.50;;;4.03;;
22429;SDS011;11382;48.086;11.632;2023-07-22T01:11:16;5.03;;;3.92;;
22429;SDS011;11382;48.086;11.632;2023-07-22T01:13:44;6.22;;;4.03;;
22429;SDS011;11382;48.086;11.632;2023-07-22T01:16:12;7.53;;;4.43;;
22429;SDS011;11382;48.086;11.632;2023-07-22T01:18:40;7.90;;;4.22;;
22429;SDS011;11382;48.086;11.632;2023-07-22T01:21:09;7.25;;;4.35;;
22429;SDS011;11382;48.086;11.632;2023-07-22T01:23:40;10.25;;;4.75;;
22429;SDS011;11382;48.086;11.632;2023-07-22T01:26:09;8.63;;;4.13;;
22429;SDS011;11382;48.086;11.632;2023-07-22T01:28:37;5.90;;;4.10;;
22429;SDS011;11382;48.086;11.632;2023-07-22T01:31:05;7.70;;;4.50;;
22429;SDS011;11382;48.086;11.632;2023-07-22T01:33:33;7.40;;;4.38;;
22429;SDS011;11382;48.086;11.632;2023-07-22T01:36:02;6.93;;;4.75;;
22429;SDS011;11382;48.086;11.632;2023-07-22T01:38:30;9.02;;;4.97;;
22429;SDS011;11382;48.086;11.632;2023-07-22T01:41:00;6.70;;;3.80;;
22429;SDS011;11382;48.086;11.632;2023-07-22T01:43:28;4.53;;;3.65;;
22429;SDS011;11382;48.086;11.632;2023-07-22T01:45:56;8.40;;;3.90;;
22429;SDS011;11382;48.086;11.632;2023-07-22T01:48:24;7.40;;;4.10;;
22429;SDS011;11382;48.086;11.632;2023-07-22T01:50:52;4.45;;;4.05;;
22429;SDS011;11382;48.086;11.632;2023-07-22T01:53:20;5.72;;;3.63;;
22429;SDS011;11382;48.086;11.632;2023-07-22T01:55:48;5.82;;;4.10;;
22429;SDS011;11382;48.086;11.632;2023-07-22T01:58:17;5.65;;;3.60;;
22429;SDS011;11382;48.086;11.632;2023-07-22T02:00:49;7.28;;;4.30;;
22429;SDS011;11382;48.086;11.632;2023-07-22T02:03:17;5.72;;;4.05;;
22429;SDS011;11382;48.086;11.632;2023-07-22T02:05:45;7.45;;;4.15;;
22429;SDS011;11382;48.086;11.632;2023-07-22T02:08:13;5.35;;;3.95;;
22429;SDS011;11382;48.086;11.632;2023-07-22T02:10:41;4.95;;;3.83;;
22429;SDS011;11382;48.086;11.632;2023-07-22T02:13:10;6.25;;;3.70;;
22429;SDS011;11382;48.086;11.632;2023-07-22T02:15:39;6.38;;;4.43;;
22429;SDS011;11382;48.086;11.632;2023-07-22T02:18:09;6.43;;;4.30;;
22429;SDS011;11382;48.086;11.632;2023-07-22T02:20:37;6.10;;;4.47;;
22429;SDS011;11382;48.086;11.632;2023-07-22T02:23:05;7.43;;;4.85;;
22429;SDS011;11382;48.086;11.632;2023-07-22T02:25:35;6.43;;;4.50;;
22429;SDS011;11382;48.086;11.632;2023-07-22T02:28:04;8.60;;;4.90;;
22429;SDS011;11382;48.086;11.632;2023-07-22T02:30:33;9.18;;;4.63;;
22429;SDS011;11382;48.086;11.632;2023-07-22T02:33:06;6.15;;;4.53;;
22429;SDS011;11382;48.086;11.632;2023-07-22T02:35:34;5.83;;;4.43;;
22429;SDS011;11382;48.086;11.632;2023-07-22T02:38:02;10.05;;;4.47;;
22429;SDS011;11382;48.086;11.632;2023-07-22T02:40:33;6.50;;;4.28;;
22429;SDS011;11382;48.086;11.632;2023-07-22T02:43:01;6.55;;;4.57;;
22429;SDS011;11382;48.086;11.632;2023-07-22T02:45:30;8.55;;;4.72;;
22429;SDS011;11382;48.086;11.632;2023-07-22T02:47:58;7.18;;;5.10;;
22429;SDS011;11382;48.086;11.632;2023-07-22T02:50:28;9.25;;;4.93;;
22429;SDS011;11382;48.086;11.632;2023-07-22T02:52:56;8.48;;;4.13;;
22429;SDS011;11382;48.086;11.632;2023-07-22T02:55:24;8.35;;;4.13;;
22429;SDS011;11382;48.086;11.632;2023-07-22T02:57:52;8.10;;;4.18;;
22429;SDS011;11382;48.086;11.632;2023-07-22T03:00:20;6.45;;;3.78;;
22429;SDS011;11382;48.086;11.632;2023-07-22T03:02:50;5.32;;;4.10;;
22429;SDS011;11382;48.086;11.632;2023-07-22T03:05:19;8.68;;;3.83;;
22429;SDS011;11382;48.086;11.632;2023-07-22T03:07:49;7.10;;;3.88;;
22429;SDS011;11382;48.086;11.632;2023-07-22T03:10:18;6.95;;;3.70;;
22429;SDS011;11382;48.086;11.632;2023-07-22T03:12:47;5.65;;;3.85;;
22429;SDS011;11382;48.086;11.632;2023-07-22T03:15:15;5.90;;;4.50;;
22429;SDS011;11382;48.086;11.632;2023-07-22T03:17:45;8.77;;;4.70;;
22429;SDS011;11382;48.086;11.632;2023-07-22T03:20:13;9.05;;;4.60;;
22429;SDS011;11382;48.086;11.632;2023-07-22T03:22:43;5.10;;;3.67;;
22429;SDS011;11382;48.086;11.632;2023-07-22T03:25:13;6.38;;;3.88;;
22429;SDS011;11382;48.086;11.632;2023-07-22T03:27:44;7.65;;;4.15;;
22429;SDS011;11382;48.086;11.632;2023-07-22T03:30:13;7.13;;;3.75;;
22429;SDS011;11382;48.086;11.632;2023-07-22T03:32:42;4.80;;;3.83;;
22429;SDS011;11382;48.086;11.632;2023-07-22T03:35:11;7.57;;;3.53;;
22429;SDS011;11382;48.086;11.632;2023-07-22T03:37:39;8.60;;;4.10;;
22429;SDS011;11382;48.086;11.632;2023-07-22T03:40:07;6.95;;;3.60;;
22429;SDS011;11382;48.086;11.632;2023-07-22T03:45:10;6.03;;;4.00;;
22429;SDS011;11382;48.086;11.632;2023-07-22T03:47:38;6.45;;;4.35;;
22429;SDS011;11382;48.086;11.632;2023-07-22T03:50:07;6.18;;;4.60;;
22429;SDS011;11382;48.086;11.632;2023-07-22T03:52:36;7.40;;;4.65;;
22429;SDS011;11382;48.086;11.632;2023-07-22T03:55:04;5.10;;;4.13;;
22429;SDS011;11382;48.086;11.632;2023-07-22T03:57:33;7.72;;;4.15;;
22429;SDS011;11382;48.086;11.632;2023-07-22T04:00:04;6.60;;;4.35;;
22429;SDS011;11382;48.086;11.632;2023-07-22T04:02:39;6.70;;;4.53;;
22429;SDS011;11382;48.086;11.632;2023-07-22T04:05:08;6.10;;;4.50;;
22429;SDS011;11382;48.086;11.632;2023-07-22T04:07:36;7.75;;;4.57;;
22429;SDS011;11382;48.086;11.632;2023-07-22T04:10:05;7.22;;;4.28;;
22429;SDS011;11382;48.086;11.632;2023-07-22T04:12:34;6.50;;;4.22;;
22429;SDS011;11382;48.086;11.632;2023-07-22T04:15:06;7.10;;;4.00;;
22429;SDS011;11382;48.086;11.632;2023-07-22T04:17:35;7.55;;;3.97;;
22429;SDS011;11382;48.086;11.632;2023-07-22T04:20:03;6.28;;;3.47;;
22429;SDS011;11382;48.086;11.632;2023-07-22T04:22:34;8.50;;;4.15;;
22429;SDS011;11382;48.086;11.632;2023-07-22T04:25:02;4.35;;;3.08;;
22429;SDS011;11382;48.086;11.632;2023-07-22T04:27:31;5.22;;;3.75;;
22429;SDS011;11382;48.086;11.632;2023-07-22T04:30:00;6.68;;;3.17;;
22429;SDS011;11382;48.086;11.632;2023-07-22T04:32:30;4.47;;;3.00;;
22429;SDS011;11382;48.086;11.632;2023-07-22T04:34:58;5.35;;;3.38;;
22429;SDS011;11382;48.086;11.632;2023-07-22T04:37:26;4.57;;;3.55;;
22429;SDS011;11382;48.086;11.632;2023-07-22T04:39:54;7.70;;;3.38;;
22429;SDS011;11382;48.086;11.632;2023-07-22T04:42:22;7.75;;;3.38;;
22429;SDS011;11382;48.086;11.632;2023-07-22T04:44:50;3.42;;;3.03;;
22429;SDS011;11382;48.086;11.632;2023-07-22T04:47:18;7.07;;;3.50;;
22429;SDS011;11382;48.086;11.632;2023-07-22T04:49:47;4.72;;;3.42;;
22429;SDS011;11382;48.086;11.632;2023-07-22T04:52:15;5.22;;;3.30;;
22429;SDS011;11382;48.086;11.632;2023-07-22T04:54:43;4.68;;;3.15;;
22429;SDS011;11382;48.086;11.632;2023-07-22T04:57:13;3.63;;;3.20;;
22429;SDS011;11382;48.086;11.632;2023-07-22T04:59:43;4.47;;;3.03;;
22429;SDS011;11382;48.086;11.632;2023-07-22T05:02:11;4.45;;;3.53;;
22429;SDS011;11382;48.086;11.632;2023-07-22T05:04:39;4.53;;;3.63;;
22429;SDS011;11382;48.086;11.632;2023-07-22T05:07:08;4.55;;;3.50;;
22429;SDS011;11382;48.086;11.632;2023-07-22T05:09:36;4.32;;;3.42;;
22429;SDS011;11382;48.086;11.632;2023-07-22T05:12:05;8.65;;;4.18;;
22429;SDS011;11382;48.086;11.632;2023-07-22T05:14:33;5.10;;;3.65;;
22429;SDS011;11382;48.086;11.632;2023-07-22T05:17:01;5.00;;;3.90;;
22429;SDS011;11382;48.086;11.632;2023-07-22T05:19:29;6.72;;;3.40;;
22429;SDS011;11382;48.086;11.632;2023-07-22T05:21:57;3.63;;;3.28;;
22429;SDS011;11382;48.086;11.632;2023-07-22T05:24:27;4.10;;;3.00;;
22429;SDS011;11382;48.086;11.632;2023-07-22T05:26:55;5.00;;;3.58;;
22429;SDS011;11382;48.086;11.632;2023-07-22T05:29:35;4.65;;;3.50;;
22429;SDS011;11382;48.086;11.632;2023-07-22T05:32:03;4.15;;;3.40;;
22429;SDS011;11382;48.086;11.632;2023-07-22T05:34:52;6.38;;;3.95;;
22429;SDS011;11382;48.086;11.632;2023-07-22T05:37:20;4.97;;;3.50;;
22429;SDS011;11382;48.086;11.632;2023-07-22T05:39:49;5.10;;;3.45;;
22429;SDS011;11382;48.086;11.632;2023-07-22T05:42:17;4.32;;;3.40;;
22429;SDS011;11382;48.086;11.632;2023-07-22T05:44:45;5.63;;;3.78;;
22429;SDS011;11382;48.086;11.632;2023-07-22T05:47:14;6.13;;;4.10;;
22429;SDS011;11382;48.086;11.632;2023-07-22T05:49:44;5.70;;;3.72;;
22429;SDS011;11382;48.086;11.632;2023-07-22T05:52:12;6.00;;;3.40;;
22429;SDS011;11382;48.086;11.632;2023-07-22T05:54:40;3.70;;;3.15;;
22429;SDS011;11382;48.086;11.632;2023-07-22T05:57:10;6.15;;;3.80;;
22429;SDS011;11382;48.086;11.632;2023-07-22T05:59:38;5.07;;;3.33;;
22429;SDS011;11382;48.086;11.632;2023-07-22T06:02:07;5.55;;;3.28;;
22429;SDS011;11382;48.086;11.632;2023-07-22T06:04:35;4.78;;;3.50;;
22429;SDS011;11382;48.086;11.632;2023-07-22T06:07:05;4.32;;;3.22;;
22429;SDS011;11382;48.086;11.632;2023-07-22T06:09:33;4.53;;;3.20;;
22429;SDS011;11382;48.086;11.632;2023-07-22T06:12:01;5.20;;;3.08;;
22429;SDS011;11382;48.086;11.632;2023-07-22T06:14:32;5.82;;;3.00;;
22429;SDS011;11382;48.086;11.632;2023-07-22T06:17:00;6.13;;;3.10;;
22429;SDS011;11382;48.086;11.632;2023-07-22T06:19:28;4.40;;;2.80;;
22429;SDS011;11382;48.086;11.632;2023-07-22T06:21:56;3.78;;;2.83;;
22429;SDS011;11382;48.086;11.632;2023-07-22T06:24:24;3.58;;;2.50;;
22429;SDS011;11382;48.086;11.632;2023-07-22T06:26:52;4.65;;;2.70;;
22429;SDS011;11382;48.086;11.632;2023-07-22T06:29:20;3.58;;;2.75;;
22429;SDS011;11382;48.086;11.632;2023-07-22T06:31:50;3.03;;;2.42;;
22429;SDS011;11382;48.086;11.632;2023-07-22T06:34:18;4.40;;;2.75;;
22429;SDS011;11382;48.086;11.632;2023-07-22T06:36:46;3.72;;;2.15;;
22429;SDS011;11382;48.086;11.632;2023-07-22T06:39:14;2.78;;;1.95;;
22429;SDS011;11382;48.086;11.632;2023-07-22T06:41:42;5.15;;;2.15;;
22429;SDS011;11382;48.086;11.632;2023-07-22T06:44:12;3.65;;;2.35;;
22429;SDS011;11382;48.086;11.632;2023-07-22T06:46:40;2.38;;;1.80;;
22429;SDS011;11382;48.086;11.632;2023-07-22T06:49:09;3.17;;;1.85;;
22429;SDS011;11382;48.086;11.632;2023-07-22T06:51:37;4.00;;;2.20;;
22429;SDS011;11382;48.086;11.632;2023-07-22T06:54:05;5.32;;;2.10;;
22429;SDS011;11382;48.086;11.632;2023-07-22T06:56:33;5.25;;;2.33;;
22429;SDS011;11382;48.086;11.632;2023-07-22T06:59:01;4.80;;;1.92;;
22429;SDS011;11382;48.086;11.632;2023-07-22T07:01:29;2.35;;;1.90;;
22429;SDS011;11382;48.086;11.632;2023-07-22T07:03:57;2.55;;;2.00;;
22429;SDS011;11382;48.086;11.632;2023-07-22T07:06:28;2.75;;;2.17;;
22429;SDS011;11382;48.086;11.632;2023-07-22T07:08:58;3.03;;;2.17;;
22429;SDS011;11382;48.086;11.632;2023-07-22T07:11:27;1.95;;;1.73;;
22429;SDS011;11382;48.086;11.632;2023-07-22T07:13:56;2.25;;;1.70;;
22429;SDS011;11382;48.086;11.632;2023-07-22T07:16:25;2.92;;;1.80;;
22429;SDS011;11382;48.086;11.632;2023-07-22T07:18:55;2.33;;;1.92;;
22429;SDS011;11382;48.086;11.632;2023-07-22T07:21:23;2.70;;;1.90;;
22429;SDS011;11382;48.086;11.632;2023-07-22T07:23:53;4.63;;;1.75;;
22429;SDS011;11382;48.086;11.632;2023-07-22T07:26:22;2.20;;;1.83;;
22429;SDS011;11382;48.086;11.632;2023-07-22T07:28:51;2.33;;;1.95;;
22429;SDS011;11382;48.086;11.632;2023-07-22T07:31:19;4.57;;;2.17;;
22429;SDS011;11382;48.086;11.632;2023-07-22T07:33:48;2.53;;;1.77;;
22429;SDS011;11382;48.086;11.632;2023-07-22T07:36:16;3.30;;;1.90;;
22429;SDS011;11382;48.086;11.632;2023-07-22T07:38:44;3.13;;;1.90;;
22429;SDS011;11382;48.086;11.632;2023-07-22T07:41:13;2.60;;;1.90;;
22429;SDS011;11382;48.086;11.632;2023-07-22T07:43:42;3.08;;;1.90;;
22429;SDS011;11382;48.086;11.632;2023-07-22T07:46:14;5.13;;;1.88;;
22429;SDS011;11382;48.086;11.632;2023-07-22T07:48:45;3.63;;;2.22;;
22429;SDS011;11382;48.086;11.632;2023-07-22T07:51:14;3.35;;;2.00;;
22429;SDS011;11382;48.086;11.632;2023-07-22T07:53:42;2.38;;;2.00;;
22429;SDS011;11382;48.086;11.632;2023-07-22T07:56:11;3.45;;;2.20;;
22429;SDS011;11382;48.086;11.632;2023-07-22T07:58:40;3.05;;;1.90;;
22429;SDS011;11382;48.086;11.632;2023-07-22T08:01:09;3.33;;;2.03;;
22429;SDS011;11382;48.086;11.632;2023-07-22T08:03:38;2.10;;;1.88;;
22429;SDS011;11382;48.086;11.632;2023-07-22T08:06:06;2.28;;;1.75;;
22429;SDS011;11382;48.086;11.632;2023-07-22T08:08:34;2.60;;;2.08;;
22429;SDS011;11382;48.086;11.632;2023-07-22T08:11:03;2.13;;;1.80;;
22429;SDS011;11382;48.086;11.632;2023-07-22T08:13:32;2.60;;;2.20;;
22429;SDS011;11382;48.086;11.632;2023-07-22T08:16:02;2.65;;;2.08;;
22429;SDS011;11382;48.086;11.632;2023-07-22T08:18:31;5.10;;;1.98;;
22429;SDS011;11382;48.086;11.632;2023-07-22T08:21:00;2.60;;;1.70;;
22429;SDS011;11382;48.086;11.632;2023-07-22T08:23:30;2.30;;;1.63;;
22429;SDS011;11382;48.086;11.632;2023-07-22T08:25:58;2.13;;;1.80;;
22429;SDS011;11382;48.086;11.632;2023-07-22T08:28:26;1.85;;;1.75;;
22429;SDS011;11382;48.086;11.632;2023-07-22T08:30:54;1.85;;;1.70;;
22429;SDS011;11382;48.086;11.632;2023-07-22T08:33:24;2.28;;;1.77;;
22429;SDS011;11382;48.086;11.632;2023-07-22T08:36:07;2.22;;;1.77;;
22429;SDS011;11382;48.086;11.632;2023-07-22T08:38:35;2.28;;;1.75;;
22429;SDS011;11382;48.086;11.632;2023-07-22T08:41:04;2.05;;;1.70;;
22429;SDS011;11382;48.086;11.632;2023-07-22T08:43:32;3.25;;;1.90;;
22429;SDS011;11382;48.086;11.632;2023-07-22T08:46:06;2.83;;;1.80;;
22429;SDS011;11382;48.086;11.632;2023-07-22T08:48:37;2.17;;;1.70;;
22429;SDS011;11382;48.086;11.632;2023-07-22T08:51:10;2.40;;;1.90;;
22429;SDS011;11382;48.086;11.632;2023-07-22T08:53:42;2.03;;;1.55;;
22429;SDS011;11382;48.086;11.632;2023-07-22T08:56:25;2.78;;;1.50;;
22429;SDS011;11382;48.086;11.632;2023-07-22T08:58:54;2.30;;;1.67;;
22429;SDS011;11382;48.086;11.632;2023-07-22T09:01:23;1.80;;;1.70;;
22429;SDS011;11382;48.086;11.632;2023-07-22T09:03:53;2.55;;;1.70;;
22429;SDS011;11382;48.086;11.632;2023-07-22T09:08:53;2.08;;;1.75;;
22429;SDS011;11382;48.086;11.632;2023-07-22T09:11:23;2.90;;;1.63;;
22429;SDS011;11382;48.086;11.632;2023-07-22T09:13:52;2.53;;;1.98;;
22429;SDS011;11382;48.086;11.632;2023-07-22T09:16:21;2.63;;;1.60;;
22429;SDS011;11382;48.086;11.632;2023-07-22T09:18:55;2.70;;;1.67;;
22429;SDS011;11382;48.086;11.632;2023-07-22T09:21:25;2.00;;;1.70;;
22429;SDS011;11382;48.086;11.632;2023-07-22T09:23:54;2.33;;;1.58;;
22429;SDS011;11382;48.086;11.632;2023-07-22T09:26:22;1.33;;;1.23;;
22429;SDS011;11382;48.086;11.632;2023-07-22T09:28:51;3.33;;;1.35;;
22429;SDS011;11382;48.086;11.632;2023-07-22T09:31:19;2.80;;;1.48;;
22429;SDS011;11382;48.086;11.632;2023-07-22T09:33:48;2.10;;;1.70;;
22429;SDS011;11382;48.086;11.632;2023-07-22T09:36:18;2.10;;;1.60;;
22429;SDS011;11382;48.086;11.632;2023-07-22T09:38:53;2.67;;;1.88;;
22429;SDS011;11382;48.086;11.632;2023-07-22T09:41:27;3.60;;;1.85;;
22429;SDS011;11382;48.086;11.632;2023-07-22T09:43:55;3.28;;;1.60;;
22429;SDS011;11382;48.086;11.632;2023-07-22T09:46:25;2.95;;;1.60;;
22429;SDS011;11382;48.086;11.632;2023-07-22T09:49:02;1.90;;;1.33;;
22429;SDS011;11382;48.086;11.632;2023-07-22T09:54:22;1.80;;;1.38;;
22429;SDS011;11382;48.086;11.632;2023-07-22T09:56:50;1.38;;;1.27;;
22429;SDS011;11382;48.086;11.632;2023-07-22T09:59:18;2.00;;;1.50;;
22429;SDS011;11382;48.086;11.632;2023-07-22T10:01:47;3.15;;;1.75;;
22429;SDS011;11382;48.086;11.632;2023-07-22T10:04:16;1.95;;;1.40;;
22429;SDS011;11382;48.086;11.632;2023-07-22T10:06:50;1.83;;;1.50;;
22429;SDS011;11382;48.086;11.632;2023-07-22T10:09:19;2.90;;;1.42;;
22429;SDS011;11382;48.086;11.632;2023-07-22T10:11:49;3.03;;;1.50;;
22429;SDS011;11382;48.086;11.632;2023-07-22T10:14:17;1.77;;;1.42;;
22429;SDS011;11382;48.086;11.632;2023-07-22T10:16:46;1.50;;;1.27;;
22429;SDS011;11382;48.086;11.632;2023-07-22T10:19:14;2.83;;;1.40;;
22429;SDS011;11382;48.086;11.632;2023-07-22T10:21:43;1.73;;;1.20;;
22429;SDS011;11382;48.086;11.632;2023-07-22T10:24:13;2.10;;;1.20;;
22429;SDS011;11382;48.086;11.632;2023-07-22T10:26:41;2.03;;;1.45;;
22429;SDS011;11382;48.086;11.632;2023-07-22T10:29:13;1.95;;;1.55;;
22429;SDS011;11382;48.086;11.632;2023-07-22T10:31:41;2.42;;;1.65;;
22429;SDS011;11382;48.086;11.632;2023-07-22T10:34:09;2.92;;;1.65;;
22429;SDS011;11382;48.086;11.632;2023-07-22T10:36:37;1.90;;;1.50;;
22429;SDS011;11382;48.086;11.632;2023-07-22T10:39:05;2.28;;;1.60;;
22429;SDS011;11382;48.086;11.632;2023-07-22T10:41:35;2.03;;;1.55;;
22429;SDS011;11382;48.086;11.632;2023-07-22T10:46:38;3.07;;;1.30;;
22429;SDS011;11382;48.086;11.632;2023-07-22T10:49:10;1.63;;;1.30;;
22429;SDS011;11382;48.086;11.632;2023-07-22T10:51:39;2.00;;;1.50;;
22429;SDS011;11382;48.086;11.632;2023-07-22T10:54:11;1.67;;;1.58;;
22429;SDS011;11382;48.086;11.632;2023-07-22T10:56:42;1.50;;;1.40;;
22429;SDS011;11382;48.086;11.632;2023-07-22T10:59:10;3.72;;;1.42;;
22429;SDS011;11382;48.086;11.632;2023-07-22T11:01:39;1.77;;;1.50;;
22429;SDS011;11382;48.086;11.632;2023-07-22T11:04:12;2.60;;;1.63;;
22429;SDS011;11382;48.086;11.632;2023-07-22T11:06:54;3.85;;;1.70;;
22429;SDS011;11382;48.086;11.632;2023-07-22T11:09:35;3.00;;;1.70;;
22429;SDS011;11382;48.086;11.632;2023-07-22T11:12:07;3.95;;;1.73;;
22429;SDS011;11382;48.086;11.632;2023-07-22T11:14:38;3.47;;;1.60;;
22429;SDS011;11382;48.086;11.632;2023-07-22T11:17:07;1.92;;;1.60;;
22429;SDS011;11382;48.086;11.632;2023-07-22T11:19:37;2.10;;;1.50;;
22429;SDS011;11382;48.086;11.632;2023-07-22T11:22:06;3.90;;;1.40;;
22429;SDS011;11382;48.086;11.632;2023-07-22T11:24:34;1.98;;;1.50;;
22429;SDS011;11382;48.086;11.632;2023-07-22T11:27:03;2.45;;;1.98;;
22429;SDS011;11382;48.086;11.632;2023-07-22T11:29:33;2.50;;;1.63;;
22429;SDS011;11382;48.086;11.632;2023-07-22T11:32:02;1.67;;;1.58;;
22429;SDS011;11382;48.086;11.632;2023-07-22T11:34:32;3.20;;;1.80;;
22429;SDS011;11382;48.086;11.632;2023-07-22T11:37:00;2.30;;;2.10;;
22429;SDS011;11382;48.086;11.632;2023-07-22T11:39:32;2.43;;;1.70;;
22429;SDS011;11382;48.086;11.632;2023-07-22T11:42:00;2.08;;;1.63;;
22429;SDS011;11382;48.086;11.632;2023-07-22T11:44:29;1.92;;;1.65;;
22429;SDS011;11382;48.086;11.632;2023-07-22T11:47:00;3.95;;;2.35;;
22429;SDS011;11382;48.086;11.632;2023-07-22T11:49:30;2.47;;;1.80;;
22429;SDS011;11382;48.086;11.632;2023-07-22T11:51:59;1.92;;;1.80;;
22429;SDS011;11382;48.086;11.632;2023-07-22T11:54:29;2.53;;;1.80;;
22429;SDS011;11382;48.086;11.632;2023-07-22T11:57:09;3.30;;;1.60;;
22429;SDS011;11382;48.086;11.632;2023-07-22T11:59:38;2.45;;;1.85;;
22429;SDS011;11382;48.086;11.632;2023-07-22T12:02:11;1.85;;;1.63;;
22429;SDS011;11382;48.086;11.632;2023-07-22T12:04:40;3.03;;;1.75;;
22429;SDS011;11382;48.086;11.632;2023-07-22T12:07:20;5.50;;;1.70;;
22429;SDS011;11382;48.086;11.632;2023-07-22T12:09:49;2.25;;;1.80;;
22429;SDS011;11382;48.086;11.632;2023-07-22T12:12:19;3.65;;;1.80;;
22429;SDS011;11382;48.086;11.632;2023-07-22T12:14:47;3.53;;;1.55;;
22429;SDS011;11382;48.086;11.632;2023-07-22T12:17:19;2.38;;;1.90;;
22429;SDS011;11382;48.086;11.632;2023-07-22T12:19:53;3.90;;;2.08;;
22429;SDS011;11382;48.086;11.632;2023-07-22T12:22:24;4.43;;;2.10;;
22429;SDS011;11382;48.086;11.632;2023-07-22T12:24:52;12.40;;;2.35;;
22429;SDS011;11382;48.086;11.632;2023-07-22T12:27:21;3.65;;;1.85;;
22429;SDS011;11382;48.086;11.632;2023-07-22T12:29:49;2.92;;;1.80;;
22429;SDS011;11382;48.086;11.632;2023-07-22T12:32:16;4.13;;;1.80;;
22429;SDS011;11382;48.086;11.632;2023-07-22T12:34:46;17.35;;;3.28;;
22429;SDS011;11382;48.086;11.632;2023-07-22T12:37:14;3.55;;;2.13;;
22429;SDS011;11382;48.086;11.632;2023-07-22T12:39:42;5.57;;;1.80;;
22429;SDS011;11382;48.086;11.632;2023-07-22T12:42:10;25.65;;;3.45;;
22429;SDS011;11382;48.086;11.632;2023-07-22T12:44:38;9.25;;;2.15;;
22429;SDS011;11382;48.086;11.632;2023-07-22T12:47:06;4.45;;;1.90;;
22429;SDS011;11382;48.086;11.632;2023-07-22T12:49:36;4.70;;;2.22;;
22429;SDS011;11382;48.086;11.632;2023-07-22T12:52:04;6.22;;;2.85;;
22429;SDS011;11382;48.086;11.632;2023-07-22T12:54:37;2.90;;;2.05;;
22429;SDS011;11382;48.086;11.632;2023-07-22T12:57:05;5.63;;;2.33;;
22429;SDS011;11382;48.086;11.632;2023-07-22T12:59:33;2.17;;;1.98;;
22429;SDS011;11382;48.086;11.632;2023-07-22T13:02:01;2.72;;;2.00;;
22429;SDS011;11382;48.086;11.632;2023-07-22T13:04:29;2.30;;;1.55;;
22429;SDS011;11382;48.086;11.632;2023-07-22T13:06:59;2.47;;;1.90;;
22429;SDS011;11382;48.086;11.632;2023-07-22T13:09:27;4.20;;;1.85;;
22429;SDS011;11382;48.086;11.632;2023-07-22T13:11:55;3.10;;;1.92;;
22429;SDS011;11382;48.086;11.632;2023-07-22T13:14:23;2.60;;;1.70;;
22429;SDS011;11382;48.086;11.632;2023-07-22T13:16:51;3.17;;;1.70;;
22429;SDS011;11382;48.086;11.632;2023-07-22T13:19:19;1.58;;;1.42;;
22429;SDS011;11382;48.086;11.632;2023-07-22T13:21:47;2.97;;;1.98;;
22429;SDS011;11382;48.086;11.632;2023-07-22T13:24:16;3.45;;;2.28;;
22429;SDS011;11382;48.086;11.632;2023-07-22T13:26:44;38.72;;;4.80;;
22429;SDS011;11382;48.086;11.632;2023-07-22T13:29:12;3.28;;;1.70;;
22429;SDS011;11382;48.086;11.632;2023-07-22T13:31:40;2.35;;;1.80;;
22429;SDS011;11382;48.086;11.632;2023-07-22T13:34:08;2.45;;;1.80;;
22429;SDS011;11382;48.086;11.632;2023-07-22T13:36:36;3.55;;;1.73;;
22429;SDS011;11382;48.086;11.632;2023-07-22T13:39:04;2.60;;;1.75;;
22429;SDS011;11382;48.086;11.632;2023-07-22T13:41:34;3.17;;;1.65;;
22429;SDS011;11382;48.086;11.632;2023-07-22T13:44:02;1.75;;;1.65;;
22429;SDS011;11382;48.086;11.632;2023-07-22T13:46:31;2.55;;;1.80;;
22429;SDS011;11382;48.086;11.632;2023-07-22T13:48:59;6.95;;;2.92;;
22429;SDS011;11382;48.086;11.632;2023-07-22T13:51:27;4.60;;;1.80;;
22429;SDS011;11382;48.086;11.632;2023-07-22T13:53:55;3.35;;;2.42;;
22429;SDS011;11382;48.086;11.632;2023-07-22T13:56:25;2.60;;;2.20;;
22429;SDS011;11382;48.086;11.632;2023-07-22T13:58:54;5.80;;;1.90;;
22429;SDS011;11382;48.086;11.632;2023-07-22T14:01:24;3.67;;;2.00;;
22429;SDS011;11382;48.086;11.632;2023-07-22T14:03:53;2.47;;;1.73;;
22429;SDS011;11382;48.086;11.632;2023-07-22T14:06:21;2.42;;;2.03;;
22429;SDS011;11382;48.086;11.632;2023-07-22T14:08:49;2.55;;;1.67;;
22429;SDS011;11382;48.086;11.632;2023-07-22T14:11:18;6.03;;;1.85;;
22429;SDS011;11382;48.086;11.632;2023-07-22T14:13:46;2.08;;;1.80;;
22429;SDS011;11382;48.086;11.632;2023-07-22T14:16:15;2.72;;;1.70;;
22429;SDS011;11382;48.086;11.632;2023-07-22T14:18:48;2.55;;;1.92;;
22429;SDS011;11382;48.086;11.632;2023-07-22T14:21:18;2.47;;;1.90;;
22429;SDS011;11382;48.086;11.632;2023-07-22T14:23:46;1.98;;;1.65;;
22429;SDS011;11382;48.086;11.632;2023-07-22T14:26:14;2.47;;;1.95;;
22429;SDS011;11382;48.086;11.632;2023-07-22T14:28:42;2.60;;;2.13;;
22429;SDS011;11382;48.086;11.632;2023-07-22T14:31:10;3.08;;;1.88;;
22429;SDS011;11382;48.086;11.632;2023-07-22T14:33:40;2.47;;;2.20;;
22429;SDS011;11382;48.086;11.632;2023-07-22T14:36:08;2.88;;;1.98;;
22429;SDS011;11382;48.086;11.632;2023-07-22T14:38:36;4.43;;;2.08;;
22429;SDS011;11382;48.086;11.632;2023-07-22T14:41:04;2.40;;;1.58;;
22429;SDS011;11382;48.086;11.632;2023-07-22T14:43:32;2.88;;;1.90;;
22429;SDS011;11382;48.086;11.632;2023-07-22T14:46:00;2.50;;;1.92;;
22429;SDS011;11382;48.086;11.632;2023-07-22T14:48:28;2.80;;;2.10;;
22429;SDS011;11382;48.086;11.632;2023-07-22T14:50:58;3.08;;;2.30;;
22429;SDS011;11382;48.086;11.632;2023-07-22T14:53:26;3.30;;;2.33;;
22429;SDS011;11382;48.086;11.632;2023-07-22T14:55:54;4.07;;;2.03;;